Tiempo atmosférico en la estación meteorológica de Cabo Peñas, Asturias (100 m.)



Fecha
DESCASC
Temp. máxima en grados centígrados (hora)
DESCASC
Temp. mínima en grados centígrados (hora)
DESCASC
Temp. media en grados centígrados
DESCASC
Racha de viento máxima en m/sg (hora)
DESCASC
Velocidad máxima media en intervalos de 10 minutos(hora)
DESCASC
Precipitaciones diarias en mm
DESCASC
Precipitaciones de 00:00 a 06:00 en mm
DESCASC
Precipitaciones de 06:00 a 12:00 en mm
DESCASC
Precipitaciones de 12:00 a 18:00 en mm
DESCASC
Precipitaciones de 18:00 a 24:00 en mm
DESCASC
10-07-2020 19.8 (18:00) 14.8 (04:30) 17.3 8.33 (21:50) 5 (23:59) 0 0 0 0 0
09-07-2020 20.5 (12:50) 16.4 (23:10) 18.4 6.39 (03:40) 3.61 (01:10) 0 0 0 0 0
08-07-2020 19.9 (16:30) 17.6 (08:10) 18.8 14.72 (00:30) 8.61 (00:50) 0 0 0 0 0
07-07-2020 20.4 (14:40) 16.6 (05:40) 18.5 15 (03:10) 8.33 (23:40) 0 0 0 0 0
06-07-2020 19.1 (00:00) 16.8 (00:00) 17.9 13.33 (22:00) 8.06 (17:40) -- -- -- -- 0
05-07-2020 21.7 (12:50) 16.9 (00:00) 19.3 4.72 (15:30) 2.5 (15:00) -- -- -- -- --
04-07-2020 21.7 (18:40) 15 (00:00) 18.4 4.17 (14:30) 3.33 (07:00) -- -- -- -- --
03-07-2020 20.1 (12:50) 15.5 (07:20) 17.8 5.56 (15:00) 2.78 (04:30) -- -- -- -- --
02-07-2020 18.9 (13:10) 15.5 (00:00) 17.2 10 (14:20) 5.83 (15:20) -- -- -- -- --
01-07-2020 20.6 (10:30) 17.1 (00:00) 18.9 10.28 (15:40) 6.67 (12:10) -- -- -- -- --
30-06-2020 22.3 (14:10) 16.7 (00:00) 19.5 5.83 (19:40) 4.17 (19:40) -- -- -- -- --
29-06-2020 19.7 (17:50) 16.2 (00:00) 18 5 (18:10) 3.61 (18:00) -- -- -- -- --
28-06-2020 22.6 (13:30) 17.5 (00:00) 20.1 8.61 (18:10) 4.72 (18:40) -- -- -- -- --
27-06-2020 23.4 (11:20) 18.3 (00:00) 20.8 8.89 (13:00) 5.56 (13:00) -- -- -- -- --
26-06-2020 20.8 (18:00) 16.3 (00:00) 18.5 7.22 (01:20) 5.56 (19:30) -- -- -- -- --
25-06-2020 19.1 (18:30) 17 (00:00) 18.1 11.11 (07:40) 7.78 (07:40) -- 1.4 15.8 -- --
24-06-2020 19.8 (15:00) 17.4 (00:00) 18.6 12.22 (05:40) 7.5 (08:10) -- 0.1 0 -- --
23-06-2020 22.7 (14:10) 17.9 (00:00) 20.3 11.11 (01:50) 8.33 (21:30) 0.2 0 0 0 0.2
22-06-2020 21.2 (14:10) 17.7 (00:00) 19.5 12.5 (13:40) 8.89 (17:30) 0 0 0 0 0
21-06-2020 22.7 (12:30) 17 (00:00) 19.9 6.11 (16:30) 4.72 (01:50) 0 0 0 0 0
20-06-2020 20.8 (14:00) 16 (00:00) 18.4 5 (09:40) 3.61 (09:20) 0 0 0 0 0
19-06-2020 19.2 (16:10) 15.1 (00:00) 17.2 6.11 (13:20) 3.61 (17:40) 0 0 0 0 0
18-06-2020 18.1 (16:20) 14.8 (00:00) 16.5 6.67 (04:20) 3.89 (04:30) 0.8 0 0.8 0 0
17-06-2020 17.5 (15:40) 14.8 (00:00) 16.2 13.06 (03:00) 7.22 (05:40) 5.7 5.5 0.2 0 0
16-06-2020 17.8 (16:30) 15 (00:00) 16.4 15 (17:00) 6.67 (12:20) 4.6 0.1 3.6 0.9 0
15-06-2020 18.5 (10:00) 15.1 (00:00) 16.8 12.5 (15:50) 7.22 (15:40) 0 0 0 0 0
14-06-2020 20.3 (11:20) 15.6 (00:00) 17.9 16.67 (16:20) 9.17 (15:40) 0 0 0 0 0
13-06-2020 19.7 (16:30) 14.4 (00:00) 17.1 18.61 (03:40) 11.67 (03:40) 0.5 0.5 0 0 0
12-06-2020 17.4 (16:10) 12.3 (00:00) 14.8 28.61 (02:50) 17.78 (02:50) -- -- -- 0.1 3.2

Gráficas

Temp. máximas Temp. mínimas Temp. medias Precipitaciones Rachas de viento máximas Velocidades máximas media en intervalos de 10 minutos

Datos horarios

Fecha y hora oficial Temperatura (ºC) Velocidad del viento (km/h) Dirección del viento Racha (km/h) Dirección de racha Precipitación (mm) Presión (hPa) Tendencia (hPa) Humedad (%)
2020-07-11 23:00:00 18.5 25 Este 47 Este 0 -- -- 86
2020-07-11 22:00:00 18.6 27 Este 47 Sudeste 0 -- -- 86
2020-07-11 21:00:00 18.6 24 Este 49 Este 0 -- -- 87
2020-07-11 20:00:00 18.6 25 Este 49 Este 0 -- -- 87
2020-07-11 19:00:00 18.7 28 Este 49 Este 0 -- -- 87
2020-07-11 18:00:00 19.1 27 Este 45 Este 0 -- -- 87
2020-07-11 17:00:00 19.4 26 Este 44 Este 0 -- -- 84
2020-07-11 16:00:00 19.6 26 Este 45 Este 0 -- -- 81
2020-07-11 15:00:00 19.4 26 Este 47 Este 0 -- -- 78
2020-07-11 14:00:00 19.6 24 Este 44 Sudeste 0 -- -- 77
2020-07-11 13:00:00 19.1 27 Este 49 Sudeste 0 -- -- 77
2020-07-11 12:00:00 19.2 25 Este 42 Este 0 -- -- 77
2020-07-11 11:00:00 18.8 23 Este 43 Este 0 -- -- 80
2020-07-11 10:00:00 17.9 24 Este 45 Este 0 -- -- 82
2020-07-11 09:00:00 17.6 21 Sudeste 42 Este 0 -- -- 81
2020-07-11 08:00:00 17.5 24 Sudeste 42 Sudeste 0 -- -- 82
2020-07-11 07:00:00 17.4 21 Sudeste 42 Este 0 -- -- 83
2020-07-11 06:00:00 17.4 23 Sudeste 38 Nordeste 0 -- -- 82
2020-07-11 05:00:00 17.5 23 Este 37 Sudeste 0 -- -- 84
2020-07-11 04:00:00 17.7 21 Este 42 Este 0 -- -- 82
2020-07-11 03:00:00 17.5 17 Sudeste 33 Sudeste 0 -- -- 83
2020-07-11 02:00:00 17.5 17 Sudeste 30 Sudeste 0 -- -- 83
2020-07-11 01:00:00 17.4 17 Sudeste 33 Sudeste 0 -- -- 83
2020-07-11 00:00:00 17.7 18 Sudeste 30 Este 0 -- -- 85
2020-07-10 23:00:00 17.9 14 Este 29 Sudeste 0 -- -- 82
2020-07-10 22:00:00 17.9 16 Sudeste 30 Este 0 -- -- 82
2020-07-10 21:00:00 18.2 11 Este 26 Sudeste 0 -- -- 77
2020-07-10 20:00:00 18.4 8 Este 25 Sudeste 0 -- -- 75
2020-07-10 19:00:00 18.6 7 Este 19 Este 0 -- -- 70
2020-07-10 18:00:00 19.7 8 Este 22 Sudeste 0 -- -- 70
2020-07-10 17:00:00 18.9 8 Este 19 Nordeste 0 -- -- 74
2020-07-10 16:00:00 18.6 6 Este 22 Nordeste 0 -- -- 79
2020-07-10 15:00:00 18.5 5 Sudeste 17 Este 0 -- -- 84
2020-07-10 14:00:00 17.3 3 Sur 15 Sudeste 0 -- -- 91
2020-07-10 13:00:00 16.9 4 Norte 14 Nordeste 0 -- -- 92
2020-07-10 12:00:00 16.5 6 Oeste 13 Oeste 0 -- -- 99
2020-07-10 11:00:00 16.8 8 Sudoeste 14 Sudoeste 0 -- -- 99
2020-07-10 10:00:00 16.3 7 Sudoeste 11 Sudoeste 0 -- -- 99
2020-07-10 09:00:00 15.9 6 Sudoeste 14 Oeste 0 -- -- 99
2020-07-10 08:00:00 16.1 8 Sudoeste 18 Oeste 0 -- -- 99
2020-07-10 07:00:00 16.2 12 Oeste 18 Oeste 0 -- -- 94
2020-07-10 06:00:00 15.3 11 Oeste 15 Oeste 0 -- -- 96
2020-07-10 05:00:00 15.7 12 Sudoeste 15 Sudoeste 0 -- -- 97
2020-07-10 04:00:00 15.9 8 Oeste 16 Noroeste 0 -- -- 92
2020-07-10 03:00:00 16.8 8 Noroeste 17 Noroeste 0 -- -- 92
2020-07-10 02:00:00 16.4 10 Oeste 20 Oeste 0 -- -- 98
2020-07-10 01:00:00 16.7 13 Oeste 24 Noroeste 0 -- -- 98
2020-07-10 00:00:00 17.1 13 Oeste 19 Oeste 0 -- -- 96
2020-07-09 23:00:00 16.7 9 Sudoeste 16 Oeste 0 -- -- 97
2020-07-09 22:00:00 17.7 10 Oeste 14 Oeste 0 -- -- 93
2020-07-09 21:00:00 19.1 6 Oeste 12 Oeste 0 -- -- 87
2020-07-09 20:00:00 19.7 6 Noroeste 17 Noroeste 0 -- -- 77
2020-07-09 19:00:00 19.9 8 Noroeste 17 Noroeste 0 -- -- 79
2020-07-09 18:00:00 19.7 6 Noroeste 16 Norte 0 -- -- 79
2020-07-09 17:00:00 19.9 8 Noroeste 17 Noroeste 0 -- -- 80
2020-07-09 16:00:00 19.5 4 Noroeste 17 Norte 0 -- -- 83
2020-07-09 15:00:00 19.8 6 Norte 12 Norte 0 -- -- 84
2020-07-09 14:00:00 19.1 9 Norte 14 Oeste 0 -- -- 85
2020-07-09 13:00:00 19.9 5 Norte 10 Norte 0 -- -- 85
2020-07-09 12:00:00 19.6 4 Norte 10 Norte 0 -- -- 87
2020-07-09 11:00:00 19.6 3 Norte 8 Norte 0 -- -- 88
2020-07-09 10:00:00 19.6 3 Norte 5 Norte 0 -- -- 90
2020-07-09 09:00:00 18.9 0 Calma 5 Sudeste 0 -- -- 93
2020-07-09 08:00:00 18.4 0 Calma 9 Sudeste 0 -- -- 97
2020-07-09 07:00:00 17.3 5 Este 9 Este 0 -- -- 97
2020-07-09 06:00:00 18 6 Nordeste 15 Este 0 -- -- 96
2020-07-09 05:00:00 17.8 5 Este 14 Este 0 -- -- 98
2020-07-09 04:00:00 18.1 7 Este 23 Este 0 -- -- 97
2020-07-09 03:00:00 18.3 6 Este 17 Nordeste 0 -- -- 97
2020-07-09 02:00:00 18 8 Este 19 Este 0 -- -- 96
2020-07-09 01:00:00 18.2 10 Este 17 Este 0 -- -- 98
2020-07-09 00:00:00 18.1 9 Este 20 Este 0 -- -- 99
2020-07-08 23:00:00 18.5 9 Este 22 Este 0 -- -- 99
2020-07-08 22:00:00 18.7 11 Este 21 Este 0 -- -- 99
2020-07-08 21:00:00 18.9 11 Sudeste 27 Este 0 -- -- 98
2020-07-08 20:00:00 19 15 Sudeste 30 Este 0 -- -- 97
2020-07-08 19:00:00 19 15 Sudeste 30 Este 0 -- -- 97
2020-07-08 18:00:00 19.5 17 Este 37 Sudeste 0 -- -- 96
2020-07-08 17:00:00 19.4 16 Sudeste 32 Este 0 -- -- 95
2020-07-08 16:00:00 19.5 14 Este 30 Sudeste 0 -- -- 96
2020-07-08 15:00:00 19.4 19 Sudeste 36 Este 0 -- -- 96
2020-07-08 14:00:00 19 16 Sudeste 35 Sudeste 0 -- -- 94
2020-07-08 13:00:00 19.1 20 Este 38 Nordeste 0 -- -- 93
2020-07-08 12:00:00 18.9 22 Sudeste 37 Sudeste 0 -- -- 95
2020-07-08 11:00:00 18.6 19 Sudeste 36 Sudeste 0 -- -- 96
2020-07-08 10:00:00 18.2 19 Sudeste 38 Sudeste 0 -- -- 96
2020-07-08 09:00:00 17.9 19 Sudeste 40 Sudeste 0 -- -- 97
2020-07-08 08:00:00 17.7 23 Sudeste 41 Este 0 -- -- 97
2020-07-08 07:00:00 17.9 21 Sudeste 42 Este 0 -- -- 97
2020-07-08 06:00:00 17.8 22 Este 42 Sudeste 0 -- -- 96
2020-07-08 05:00:00 17.9 22 Este 44 Sudeste 0 -- -- 94
2020-07-08 04:00:00 18 23 Este 45 Este 0 -- -- 93
2020-07-08 03:00:00 18 28 Este 48 Este 0 -- -- 92
2020-07-08 02:00:00 18.2 30 Este 51 Este 0 -- -- 92
2020-07-08 01:00:00 18.5 30 Este 53 Este 0 -- -- 91
2020-07-08 00:00:00 18.3 30 Este 47 Este 0 -- -- 93
2020-07-07 23:00:00 18.4 30 Este 43 Este 0 -- -- 94
2020-07-07 22:00:00 18.3 25 Este 45 Este 0 -- -- 94
2020-07-07 21:00:00 18.5 25 Este 42 Este 0 -- -- 92
2020-07-07 20:00:00 18.7 25 Este 45 Este 0 -- -- 90
2020-07-07 19:00:00 18.7 28 Este 45 Este 0 -- -- 87
2020-07-07 18:00:00 19 26 Este 47 Este 0 -- -- 85
2020-07-07 17:00:00 19.9 27 Este 44 Este 0 -- -- 80
2020-07-07 16:00:00 19.9 26 Este 41 Este 0 -- -- 78
2020-07-07 15:00:00 19 25 Este 42 Este 0 -- -- 79
2020-07-07 14:00:00 20 26 Este 41 Este 0 -- -- 77
2020-07-07 13:00:00 19.7 27 Este 45 Este 0 -- -- 77
2020-07-07 12:00:00 19 26 Este 42 Este 0 -- -- 77
2020-07-07 11:00:00 19 27 Este 41 Este 0 -- -- 79
2020-07-07 10:00:00 18.4 23 Este 47 Este 0 -- -- 83
2020-07-07 09:00:00 17.2 27 Este 46 Este 0 -- -- 82
2020-07-07 08:00:00 16.8 24 Este 45 Este 0 -- -- 80
2020-07-07 07:00:00 16.8 25 Este 47 Este 0 -- -- 81
2020-07-07 06:00:00 16.7 27 Este 47 Este 0 -- -- 82
2020-07-07 05:00:00 16.8 27 Este 49 Este 0 -- -- 83
2020-07-07 04:00:00 16.7 29 Este 54 Sudeste 0 -- -- 85
2020-07-07 03:00:00 16.8 27 Este 47 Este 0 -- -- 85
2020-07-07 02:00:00 17.1 27 Este 47 Este 0 -- -- 86
2020-07-07 01:00:00 16.9 27 Este 46 Este 0 -- -- 86
2020-07-07 00:00:00 17.1 26 Este 47 Este 0 -- -- 86
2020-07-06 23:00:00 17.1 25 Este 44 Este 0 -- -- 88
2020-07-06 22:00:00 17.1 26 Este 48 Este 0 -- -- 87
2020-07-06 21:00:00 17.4 26 Este 45 Este 0 -- -- 86
2020-07-06 20:00:00 17.5 24 Este 46 Este 0 -- -- 86
2020-07-06 19:00:00 17.7 23 Este 45 Este 0 -- -- 85
2020-07-06 18:00:00 18.3 27 Este 44 Este 0 -- -- 85
2020-07-06 17:00:00 18.5 27 Este 45 Este 0 -- -- 84
2020-07-06 16:00:00 17.7 26 Este 47 Este 0 -- -- 85
2020-07-06 15:00:00 17.1 28 Sudeste -- -- -- -- -- 88
2020-07-06 14:00:00 -- -- -- -- -- -- -- -- --
2020-07-06 13:00:00 -- -- -- -- -- -- -- -- --
2020-07-06 12:00:00 -- -- -- -- -- -- -- -- --
2020-07-06 11:00:00 17.5 21 Sudeste 45 Sudeste -- -- -- 86
2020-07-06 10:00:00 17.2 15 Este 42 Este -- -- -- 89
2020-07-06 09:00:00 17.2 15 Este 44 Nordeste -- -- -- 93
2020-07-06 08:00:00 18 17 Este 40 Nordeste -- -- -- 93
2020-07-06 07:00:00 18.9 7 Sudeste 22 Este -- -- -- 91
2020-07-06 06:00:00 19 7 Sudeste 23 Sudeste -- -- -- 91
2020-07-06 05:00:00 18.8 8 Este 22 Este -- -- -- 92
2020-07-06 04:00:00 18.4 6 Sudeste 22 Norte -- -- -- 93
2020-07-06 03:00:00 18.7 5 Sudeste 13 Sudeste -- -- -- 93
2020-07-06 02:00:00 19 2 Sur 9 Sudeste -- -- -- 93
2020-07-06 01:00:00 19 3 Este 10 Nordeste -- -- -- 93
2020-07-06 00:00:00 19.1 3 Sur 9 Sudeste -- -- -- 93
2020-07-05 23:00:00 19.1 0 Calma 9 Oeste -- -- -- 92
2020-07-05 22:00:00 18.5 4 Oeste 14 Noroeste -- -- -- 90
2020-07-05 21:00:00 18.8 4 Noroeste 12 Noroeste -- -- -- 90
2020-07-05 20:00:00 19.2 4 Noroeste 14 Noroeste -- -- -- 90
2020-07-05 19:00:00 19.3 4 Norte 14 Norte -- -- -- 91
2020-07-05 18:00:00 19.3 0 Calma 13 Noroeste -- -- -- 92
2020-07-05 17:00:00 20 2 Noroeste 16 Norte -- -- -- 90
2020-07-05 16:00:00 19.8 4 Noroeste 17 Oeste -- -- -- 87
2020-07-05 15:00:00 19.9 9 Norte 15 Norte -- -- -- 86
2020-07-05 14:00:00 21.1 0 Calma 14 Norte -- -- -- 84
2020-07-05 13:00:00 20.4 3 Noroeste 15 Nordeste -- -- -- 85
2020-07-05 12:00:00 20.4 4 Norte 11 Norte -- -- -- 87
2020-07-05 11:00:00 20.1 4 Norte 8 Noroeste -- -- -- 85
2020-07-05 10:00:00 20.5 3 Norte 6 Noroeste -- -- -- 82
2020-07-05 09:00:00 20.2 3 Nordeste 5 Nordeste -- -- -- 84
2020-07-05 08:00:00 18.6 3 Sur 5 Sudoeste -- -- -- 89
2020-07-05 07:00:00 17.5 3 Oeste 7 Sudoeste -- -- -- 90
2020-07-05 06:00:00 17 6 Sudoeste 7 Sudoeste -- -- -- 90
2020-07-05 05:00:00 18.1 3 Noroeste 5 Noroeste -- -- -- 89
2020-07-05 04:00:00 18.8 3 Norte 5 Norte -- -- -- 88
2020-07-05 03:00:00 19.1 2 Sur 5 Sudoeste -- -- -- 86
2020-07-05 02:00:00 18.8 4 Sudoeste 7 Sur -- -- -- 83
2020-07-05 01:00:00 19.1 4 Sur 6 Sur -- -- -- 81
2020-07-05 00:00:00 18.7 2 Sudoeste 6 Sudoeste -- -- -- 84
2020-07-04 23:00:00 18.7 4 Sur 6 Sur -- -- -- 86
2020-07-04 22:00:00 18.8 3 Oeste 6 Noroeste -- -- -- 85
2020-07-04 21:00:00 19.8 2 Noroeste 6 Este -- -- -- 83
2020-07-04 20:00:00 19.2 0 Calma 9 Sudoeste -- -- -- 82
2020-07-04 19:00:00 20.9 0 Calma 10 Nordeste -- -- -- 77
2020-07-04 18:00:00 21 3 Este 13 Este -- -- -- 76
2020-07-04 17:00:00 20.5 5 Nordeste 14 Este -- -- -- 77
2020-07-04 16:00:00 20.2 3 Norte 12 Noroeste -- -- -- 79
2020-07-04 15:00:00 19.6 7 Norte 15 Norte -- -- -- 82
2020-07-04 14:00:00 19 6 Norte 15 Norte -- -- -- 82
2020-07-04 13:00:00 18.9 7 Noroeste 15 Norte -- -- -- 82
2020-07-04 12:00:00 18.8 6 Norte 14 Noroeste -- -- -- 82
2020-07-04 11:00:00 18.9 4 Oeste 14 Noroeste -- -- -- 81
2020-07-04 10:00:00 19.9 3 Sur 12 Sudoeste -- -- -- 78
2020-07-04 09:00:00 16.8 9 Sudoeste 13 Oeste -- -- -- 85
2020-07-04 08:00:00 15.8 12 Sudoeste 14 Sudoeste -- -- -- 88
2020-07-04 07:00:00 15.4 12 Sudoeste 14 Sudoeste -- -- -- 89
2020-07-04 06:00:00 15.3 9 Sudoeste 11 Sudoeste -- -- -- 88
2020-07-04 05:00:00 16.2 7 Sudoeste 8 Sudoeste -- -- -- 88
2020-07-04 04:00:00 17.1 3 Sudeste 7 Sudeste -- -- -- 85
2020-07-04 03:00:00 17.3 4 Sudeste 9 Sudeste -- -- -- 83
2020-07-04 02:00:00 17.8 5 Sudeste 9 Sudeste -- -- -- 80
2020-07-04 01:00:00 17.5 5 Sudeste 8 Sudeste -- -- -- 82
2020-07-04 00:00:00 17.7 5 Sudeste 9 Sudeste -- -- -- 79
2020-07-03 23:00:00 18.1 3 Este 12 Este -- -- -- 78
2020-07-03 22:00:00 17.9 6 Este 12 Este -- -- -- 80
2020-07-03 21:00:00 18.4 5 Este 13 Sudeste -- -- -- 77
2020-07-03 20:00:00 19 4 Este 13 Este -- -- -- 70
2020-07-03 19:00:00 19.4 3 Este 15 Este -- -- -- 65
2020-07-03 18:00:00 18.9 5 Este 19 Este -- -- -- 65
2020-07-03 17:00:00 19.2 6 Este 19 Este -- -- -- 66
2020-07-03 16:00:00 19.3 8 Este 20 Este -- -- -- 67
2020-07-03 15:00:00 18.8 7 Este 20 Este -- -- -- 66
2020-07-03 14:00:00 19 4 Este 13 Este -- -- -- 66
2020-07-03 13:00:00 19 3 Este 12 Este -- -- -- 66
2020-07-03 12:00:00 17.4 3 Noroeste 12 Norte -- -- -- 77
2020-07-03 11:00:00 17.5 5 Noroeste 11 Oeste -- -- -- 82
2020-07-03 10:00:00 17.5 8 Oeste 12 Sudoeste -- -- -- 87
2020-07-03 09:00:00 16.9 8 Sudoeste 10 Sudoeste -- -- -- 88
2020-07-03 08:00:00 16.1 8 Sudoeste 11 Sudoeste -- -- -- 88
2020-07-03 07:00:00 15.7 9 Sudoeste 11 Sudoeste -- -- -- 89
2020-07-03 06:00:00 15.8 8 Sudoeste 12 Sudoeste -- -- -- 89
2020-07-03 05:00:00 15.9 9 Sudoeste 13 Sudoeste -- -- -- 89
2020-07-03 04:00:00 16.3 6 Sudoeste 14 Sudoeste -- -- -- 89
2020-07-03 03:00:00 16.7 6 Sudoeste 16 Oeste -- -- -- 88
2020-07-03 02:00:00 17.5 0 Calma 13 Noroeste -- -- -- 82
2020-07-03 01:00:00 18 4 Noroeste 18 Norte -- -- -- 74
2020-07-03 00:00:00 17.9 9 Noroeste 16 Noroeste -- -- -- 74
2020-07-02 23:00:00 18.1 10 Noroeste 21 Noroeste -- -- -- 72
2020-07-02 22:00:00 18 14 Noroeste 26 Noroeste -- -- -- 72
2020-07-02 21:00:00 18.2 14 Noroeste 26 Noroeste -- -- -- 71
2020-07-02 20:00:00 18.3 10 Noroeste 26 Noroeste -- -- -- 76
2020-07-02 19:00:00 18.4 14 Noroeste 26 Noroeste -- -- -- 72
2020-07-02 18:00:00 18.1 16 Noroeste 32 Noroeste -- -- -- 78
2020-07-02 17:00:00 17.7 18 Noroeste 36 Noroeste -- -- -- 84
2020-07-02 16:00:00 17.8 16 Noroeste 35 Noroeste -- -- -- 78
2020-07-02 15:00:00 18.1 17 Noroeste 36 Norte -- -- -- 81
2020-07-02 14:00:00 17.9 11 Noroeste 36 Noroeste -- -- -- 79
2020-07-02 13:00:00 18.7 10 Noroeste 27 Oeste -- -- -- 72
2020-07-02 12:00:00 18.2 11 Noroeste 27 Noroeste -- -- -- 75
2020-07-02 11:00:00 17.6 15 Noroeste 30 Noroeste -- -- -- 84
2020-07-02 10:00:00 18 12 Sudoeste 19 Sudoeste -- -- -- 85
2020-07-02 09:00:00 16.6 8 Sur 14 Sudoeste -- -- -- 90
2020-07-02 08:00:00 16.1 11 Sudoeste 14 Sudoeste -- -- -- 90
2020-07-02 07:00:00 15.6 10 Sudoeste 18 Oeste -- -- -- 90
2020-07-02 06:00:00 16.8 12 Noroeste 21 Norte -- -- -- 85
2020-07-02 05:00:00 17.3 9 Noroeste 27 Noroeste -- -- -- 87
2020-07-02 04:00:00 17.4 13 Oeste 20 Oeste -- -- -- 89
2020-07-02 03:00:00 17.7 9 Oeste 21 Oeste -- -- -- 87
2020-07-02 02:00:00 17 11 Sudoeste 21 Sudoeste -- -- -- 89
2020-07-02 01:00:00 17.8 10 Oeste 27 Noroeste -- -- -- 84
2020-07-02 00:00:00 17.4 14 Oeste 33 Noroeste -- -- -- 85
2020-07-01 23:00:00 17.5 13 Noroeste 26 Noroeste -- -- -- 85
2020-07-01 22:00:00 17.5 10 Noroeste 32 Noroeste -- -- -- 87
2020-07-01 21:00:00 18 12 Noroeste 27 Noroeste -- -- -- 83
2020-07-01 20:00:00 18.5 12 Noroeste 24 Noroeste -- -- -- 84
2020-07-01 19:00:00 18.7 13 Noroeste 31 Noroeste -- -- -- 80
2020-07-01 18:00:00 18.5 17 Noroeste 31 Norte -- -- -- 84
2020-07-01 17:00:00 18.8 14 Noroeste 33 Noroeste -- -- -- 82
2020-07-01 16:00:00 18.7 14 Noroeste 37 Noroeste -- -- -- 84
2020-07-01 15:00:00 18.6 13 Noroeste 33 Norte -- -- -- 86
2020-07-01 14:00:00 18 18 Noroeste 33 Noroeste -- -- -- 90
2020-07-01 13:00:00 17.9 17 Noroeste 36 Noroeste -- -- -- 90
2020-07-01 12:00:00 18.5 20 Noroeste 31 Noroeste -- -- -- 91
2020-07-01 11:00:00 19.7 11 Noroeste 23 Noroeste -- -- -- 88
2020-07-01 10:00:00 19.9 5 Noroeste 15 Norte -- -- -- 89
2020-07-01 09:00:00 19.7 9 Oeste 17 Sudoeste -- -- -- 90
2020-07-01 08:00:00 19.5 10 Oeste 22 Oeste -- -- -- 91
2020-07-01 07:00:00 19.5 15 Oeste 24 Oeste -- -- -- 90
2020-07-01 06:00:00 19 13 Oeste 23 Oeste -- -- -- 90
2020-07-01 05:00:00 19.6 13 Oeste 21 Oeste -- -- -- 88
2020-07-01 04:00:00 19.4 11 Oeste 15 Oeste -- -- -- 86
2020-07-01 03:00:00 19.2 10 Sudoeste 12 Sudoeste -- -- -- 90
2020-07-01 02:00:00 19.5 2 Oeste 6 Oeste -- -- -- 89
2020-07-01 01:00:00 19.5 3 Noroeste 6 Noroeste -- -- -- 89
2020-07-01 00:00:00 19.3 5 Sudoeste 8 Sudoeste -- -- -- 89
2020-06-30 23:00:00 18.9 7 Sudeste 9 Este -- -- -- 89
2020-06-30 22:00:00 19.5 4 Este 8 Este -- -- -- 88
2020-06-30 21:00:00 19.7 3 Este 14 Sudeste -- -- -- 86
2020-06-30 20:00:00 19.8 13 Este 21 Sudeste -- -- -- 86
2020-06-30 19:00:00 20.7 13 Este 18 Este -- -- -- 83
2020-06-30 18:00:00 21 14 Este 18 Este -- -- -- 82
2020-06-30 17:00:00 21 14 Este 19 Sudeste -- -- -- 77
2020-06-30 16:00:00 20.6 12 Sudeste 18 Sudeste -- -- -- 83
2020-06-30 15:00:00 20.6 6 Nordeste 14 Nordeste -- -- -- 83
2020-06-30 14:00:00 21.9 0 Calma 11 Nordeste -- -- -- 84
2020-06-30 13:00:00 20.1 3 Norte 11 Norte -- -- -- 86
2020-06-30 12:00:00 20.2 3 Norte 10 Norte -- -- -- 85
2020-06-30 11:00:00 19.7 3 Norte 10 Norte -- -- -- 85
2020-06-30 10:00:00 18.8 4 Norte 9 Noroeste -- -- -- 88
2020-06-30 09:00:00 19.1 2 Nordeste 4 Nordeste -- -- -- 88
2020-06-30 08:00:00 17.9 3 Este 5 Sudeste -- -- -- 89
2020-06-30 07:00:00 17.7 2 Norte 6 Sur -- -- -- 87
2020-06-30 06:00:00 17.3 0 Calma 3 Sudoeste -- -- -- 88
2020-06-30 05:00:00 16.9 0 Calma 6 Sudoeste -- -- -- 88
2020-06-30 04:00:00 16.9 6 Sudoeste 8 Sur -- -- -- 90
2020-06-30 03:00:00 17 3 Sur 6 Sudoeste -- -- -- 90
2020-06-30 02:00:00 17.5 4 Sudeste 6 Sudeste -- -- -- 88
2020-06-30 01:00:00 17.6 3 Sudeste 7 Sudeste -- -- -- 88
2020-06-30 00:00:00 17.5 5 Sudeste 8 Este -- -- -- 88
2020-06-29 23:00:00 17.5 5 Este 11 Sudeste -- -- -- 88
2020-06-29 22:00:00 17.3 8 Este 14 Sudeste -- -- -- 87
2020-06-29 21:00:00 18.4 8 Este 13 Sudeste -- -- -- 83
2020-06-29 20:00:00 18.9 10 Este 15 Este -- -- -- 82
2020-06-29 19:00:00 18.8 12 Este 18 Este -- -- -- 81
2020-06-29 18:00:00 19.5 13 Este 16 Este -- -- -- 78
2020-06-29 17:00:00 19.2 11 Este 16 Este -- -- -- 78
2020-06-29 16:00:00 19.2 10 Este 15 Este -- -- -- 80
2020-06-29 15:00:00 18.8 9 Este 14 Este -- -- -- 83
2020-06-29 14:00:00 17.8 8 Este 13 Este -- -- -- 88
2020-06-29 13:00:00 17.5 5 Este 15 Sudeste -- -- -- 90
2020-06-29 12:00:00 17.3 6 Sudeste 13 Norte -- -- -- 91
2020-06-29 11:00:00 16.6 4 Sudeste 12 Sudeste -- -- -- 93
2020-06-29 10:00:00 16.7 2 Sudeste 12 Este -- -- -- 93
2020-06-29 09:00:00 16.5 5 Nordeste 11 Nordeste -- -- -- 93
2020-06-29 08:00:00 16.6 0 Calma 7 Nordeste -- -- -- 93
2020-06-29 07:00:00 16.4 0 Calma 10 Sudeste -- -- -- 93
2020-06-29 06:00:00 16.5 3 Sur 10 Sudeste -- -- -- 93
2020-06-29 05:00:00 17.1 0 Calma 10 Sudoeste -- -- -- 93
2020-06-29 04:00:00 16.8 8 Sudoeste 10 Oeste -- -- -- 92
2020-06-29 03:00:00 17.3 6 Oeste 12 Oeste -- -- -- 92
2020-06-29 02:00:00 17.5 7 Oeste 15 Oeste -- -- -- 92
2020-06-29 01:00:00 17.7 10 Oeste 14 Oeste -- -- -- 92
2020-06-29 00:00:00 17.7 9 Noroeste 18 Noroeste -- -- -- 92
2020-06-28 23:00:00 18.2 9 Noroeste 17 Oeste -- -- -- 92
2020-06-28 22:00:00 18 8 Noroeste 24 Noroeste -- -- -- 93
2020-06-28 21:00:00 18 13 Noroeste 22 Noroeste -- -- -- 93
2020-06-28 20:00:00 18.4 10 Noroeste 27 Norte -- -- -- 93
2020-06-28 19:00:00 18.2 17 Noroeste 31 Noroeste -- -- -- 93
2020-06-28 18:00:00 19 15 Noroeste 31 Noroeste -- -- -- 91
2020-06-28 17:00:00 19.9 15 Oeste 29 Oeste -- -- -- 89
2020-06-28 16:00:00 20.9 10 Noroeste 18 Noroeste -- -- -- 85
2020-06-28 15:00:00 20.9 5 Noroeste 16 Noroeste -- -- -- 80
2020-06-28 14:00:00 21.6 6 Noroeste 12 Noroeste -- -- -- 72
2020-06-28 13:00:00 22.3 5 Noroeste 12 Oeste -- -- -- 72
2020-06-28 12:00:00 20.9 4 Noroeste 11 Noroeste -- -- -- 73
2020-06-28 11:00:00 19.8 6 Oeste 13 Sudoeste -- -- -- 80
2020-06-28 10:00:00 20.7 10 Sudoeste 14 Sudoeste -- -- -- 79
2020-06-28 09:00:00 19.7 4 Sudoeste 10 Sudeste -- -- -- 85
2020-06-28 08:00:00 18.4 4 Sudeste 15 Sudeste -- -- -- 89
2020-06-28 07:00:00 17.8 7 Sudeste 12 Sudeste -- -- -- 89
2020-06-28 06:00:00 18.2 5 Sudeste 10 Sur -- -- -- 89
2020-06-28 05:00:00 18.3 3 Sur 7 Sur -- -- -- 89
2020-06-28 04:00:00 18.6 3 Sudoeste 8 Noroeste -- -- -- 89
2020-06-28 03:00:00 18.4 6 Sudoeste 9 Sudoeste -- -- -- 89
2020-06-28 02:00:00 18.7 5 Oeste 10 Oeste -- -- -- 89
2020-06-28 01:00:00 18.5 6 Oeste 13 Oeste -- -- -- 89
2020-06-28 00:00:00 18.6 6 Oeste 12 Oeste -- -- -- 89
2020-06-27 23:00:00 18.7 7 Sudoeste 14 Noroeste -- -- -- 89
2020-06-27 22:00:00 18.6 9 Oeste 16 Oeste -- -- -- 88
2020-06-27 21:00:00 18.8 9 Oeste 18 Oeste -- -- -- 87
2020-06-27 20:00:00 18.5 10 Oeste 22 Oeste -- -- -- 87
2020-06-27 19:00:00 18.8 11 Oeste 21 Oeste -- -- -- 88
2020-06-27 18:00:00 19.4 10 Oeste 17 Noroeste -- -- -- 86
2020-06-27 17:00:00 19 7 Oeste 25 Noroeste -- -- -- 85
2020-06-27 16:00:00 18.6 12 Noroeste 23 Noroeste -- -- -- 90
2020-06-27 15:00:00 18.9 5 Noroeste 19 Noroeste -- -- -- 90
2020-06-27 14:00:00 19.3 9 Noroeste 26 Noroeste -- -- -- 90
2020-06-27 13:00:00 19.5 20 Noroeste 32 Noroeste -- -- -- 88
2020-06-27 12:00:00 22.9 4 Noroeste 10 Sudoeste -- -- -- 73
2020-06-27 11:00:00 22.5 3 Sur 8 Sudoeste -- -- -- 72
2020-06-27 10:00:00 21.2 2 Sudeste 5 Sudoeste -- -- -- 79
2020-06-27 09:00:00 21.4 5 Sudoeste 10 Sudoeste -- -- -- 76
2020-06-27 08:00:00 20.7 7 Sudoeste 12 Sur -- -- -- 84
2020-06-27 07:00:00 20.6 5 Sur 12 Sudoeste -- -- -- 83
2020-06-27 06:00:00 20.5 6 Sudoeste 14 Sudeste -- -- -- 83
2020-06-27 05:00:00 20.5 3 Sur 9 Sudeste -- -- -- 81
2020-06-27 04:00:00 20 4 Sur 11 Sur -- -- -- 82
2020-06-27 03:00:00 19.9 10 Sudoeste 18 Oeste -- -- -- 82
2020-06-27 02:00:00 19.5 12 Oeste 24 Oeste -- -- -- 83
2020-06-27 01:00:00 20 4 Sudoeste 9 Sudoeste -- -- -- 82
2020-06-27 00:00:00 20 7 Sudoeste 14 Noroeste -- -- -- 81
2020-06-26 23:00:00 20.2 8 Oeste 13 Oeste -- -- -- 82
2020-06-26 22:00:00 19.3 3 Sur 14 Sudeste -- -- -- 89
2020-06-26 21:00:00 18.8 11 Sudeste 21 Sudeste -- -- -- 89
2020-06-26 20:00:00 19 17 Sudeste 26 Este -- -- -- 88
2020-06-26 19:00:00 19.4 18 Este 26 Este -- -- -- 84
2020-06-26 18:00:00 20.1 15 Este 23 Este -- -- -- 78
2020-06-26 17:00:00 19.2 13 Este 18 Este -- -- -- 81
2020-06-26 16:00:00 20.5 12 Este 16 Este -- -- -- 79
2020-06-26 15:00:00 19.7 4 Este 11 Sudeste -- -- -- 78
2020-06-26 14:00:00 19.9 0 Calma 12 Norte -- -- -- 80
2020-06-26 13:00:00 19.3 4 Norte 11 Norte -- -- -- 83
2020-06-26 12:00:00 18.9 3 Noroeste 15 Oeste -- -- -- 86
2020-06-26 11:00:00 18.3 8 Oeste 12 Oeste -- -- -- 90
2020-06-26 10:00:00 17.3 5 Oeste 9 Oeste -- -- -- 90
2020-06-26 09:00:00 16.8 7 Oeste 14 Sudoeste -- -- -- 93
2020-06-26 08:00:00 17.2 10 Sudoeste 18 Oeste -- -- -- 93
2020-06-26 07:00:00 16.8 8 Oeste 13 Sudoeste -- -- -- 92
2020-06-26 06:00:00 16.8 5 Oeste 15 Oeste -- -- -- 93
2020-06-26 05:00:00 16.8 9 Oeste 22 Noroeste -- -- -- 92
2020-06-26 04:00:00 17.5 9 Oeste 18 Noroeste -- -- -- 84
2020-06-26 03:00:00 18 9 Noroeste 20 Noroeste -- -- -- 83
2020-06-26 02:00:00 18 14 Noroeste 26 Noroeste -- -- -- 85
2020-06-26 01:00:00 17.9 14 Noroeste 26 Noroeste -- -- -- 84
2020-06-26 00:00:00 17.9 8 Noroeste 22 Noroeste -- -- -- 88
2020-06-25 23:00:00 17.9 11 Noroeste 28 Noroeste -- -- -- 89
2020-06-25 22:00:00 17.9 12 Noroeste 30 Oeste -- -- -- 89
2020-06-25 21:00:00 17.4 15 Oeste 36 Oeste -- -- -- 89
2020-06-25 20:00:00 17.8 10 Oeste 29 Oeste -- -- -- 87
2020-06-25 19:00:00 18.7 10 Oeste 23 Noroeste -- -- -- 88
2020-06-25 18:00:00 17.9 9 Noroeste 30 Noroeste -- -- -- 90
2020-06-25 17:00:00 17.8 14 Noroeste 32 Noroeste -- -- -- 89
2020-06-25 16:00:00 17.5 16 Noroeste 35 Noroeste -- -- -- 89
2020-06-25 15:00:00 18 12 Noroeste 35 Noroeste -- -- -- 88
2020-06-25 14:00:00 18.5 12 Noroeste 31 Oeste 0.4 -- -- 88
2020-06-25 13:00:00 18.7 11 Noroeste 33 Norte 2.5 -- -- 89
2020-06-25 12:00:00 18.3 11 Noroeste 35 Noroeste 2.1 -- -- 89
2020-06-25 11:00:00 18.5 14 Noroeste 34 Noroeste 0.1 -- -- 89
2020-06-25 10:00:00 18 17 Oeste 35 Oeste 1.2 -- -- 89
2020-06-25 09:00:00 17.8 21 Oeste 37 Oeste 5.4 -- -- 91
2020-06-25 08:00:00 17.9 23 Oeste 40 Oeste 6.6 -- -- 90
2020-06-25 07:00:00 17.7 24 Oeste 35 Oeste 0.4 -- -- 91
2020-06-25 06:00:00 18 24 Oeste 35 Oeste 0.2 -- -- 92
2020-06-25 05:00:00 17.9 24 Oeste 37 Oeste 0.2 -- -- 91
2020-06-25 04:00:00 18 26 Oeste 38 Oeste 0.4 -- -- 92
2020-06-25 03:00:00 17.9 24 Oeste 36 Oeste 0.4 -- -- 93
2020-06-25 02:00:00 18.3 23 Oeste 37 Oeste 0 -- -- 93
2020-06-25 01:00:00 18.3 22 Oeste 38 Oeste 0.2 -- -- 93
2020-06-25 00:00:00 18.6 24 Oeste 37 Oeste 0.3 -- -- 93
2020-06-24 23:00:00 18.2 15 Oeste 27 Oeste 0 -- -- 93
2020-06-24 22:00:00 18.4 21 Oeste 30 Oeste 0.3 -- -- 93
2020-06-24 21:00:00 18.4 12 Oeste 30 Oeste 1 -- -- 93
2020-06-24 20:00:00 18.5 22 Oeste 35 Oeste 1.2 -- -- 93
2020-06-24 19:00:00 18.3 21 Sudoeste -- -- -- -- -- 93
2020-06-24 18:00:00 18.2 21 Oeste -- -- -- -- -- 93
2020-06-24 17:00:00 -- -- -- -- -- -- -- -- --
2020-06-24 16:00:00 19.2 13 Noroeste 39 Noroeste 0.9 -- -- 89
2020-06-24 15:00:00 19.4 15 Noroeste 39 Sudoeste 0 -- -- 88
2020-06-24 14:00:00 19 18 Oeste 29 Noroeste 0 -- -- 87
2020-06-24 13:00:00 19.3 20 Oeste 31 Oeste 0 -- -- 88
2020-06-24 12:00:00 19 22 Oeste 33 Oeste 0 -- -- 88
2020-06-24 11:00:00 19.6 22 Oeste 33 Oeste 0 -- -- 89
2020-06-24 10:00:00 19.2 24 Oeste 36 Oeste 0 -- -- 91
2020-06-24 09:00:00 18.8 23 Oeste 36 Oeste 0 -- -- 93
2020-06-24 08:00:00 18.5 27 Oeste 39 Oeste 0 -- -- 93
2020-06-24 07:00:00 18.4 23 Oeste 34 Oeste 0 -- -- 94
2020-06-24 06:00:00 18.3 22 Oeste 44 Sudoeste 0 -- -- 94
2020-06-24 05:00:00 18.4 24 Oeste 36 Oeste 0 -- -- 94
2020-06-24 04:00:00 18.4 23 Oeste 36 Oeste 0 -- -- 94
2020-06-24 03:00:00 18.5 20 Oeste 32 Oeste 0 -- -- 94
2020-06-24 02:00:00 18.5 12 Oeste 17 Oeste 0 -- -- 93
2020-06-24 01:00:00 19 3 Este 11 Este 0.1 -- -- 93
2020-06-24 00:00:00 19.1 10 Este 33 Este 0 -- -- 93
2020-06-23 23:00:00 19.2 24 Este 39 Este 0 -- -- 93
2020-06-23 22:00:00 18.9 28 Este 38 Este 0 -- -- 92
2020-06-23 21:00:00 19.3 27 Este 36 Este 0.1 -- -- 91
2020-06-23 20:00:00 20.1 29 Este 38 Este 0.1 -- -- 89
2020-06-23 19:00:00 20.9 29 Este 37 Este 0 -- -- 87
2020-06-23 18:00:00 21.1 27 Este 37 Este 0 -- -- 85
2020-06-23 17:00:00 21.8 28 Este 36 Este 0 -- -- 84
2020-06-23 16:00:00 21.3 27 Este 34 Este 0 -- -- 84
2020-06-23 15:00:00 21.4 23 Este 30 Este 0 -- -- 85
2020-06-23 14:00:00 22.2 19 Este 27 Este 0 -- -- 85
2020-06-23 13:00:00 20.3 21 Este 30 Este 0 -- -- 89
2020-06-23 12:00:00 19.5 19 Este 30 Este 0 -- -- 92
2020-06-23 11:00:00 18.7 21 Este 31 Este 0 -- -- 93
2020-06-23 10:00:00 18.5 23 Este 32 Este 0 -- -- 93
2020-06-23 09:00:00 18.1 18 Este 27 Este 0 -- -- 94
2020-06-23 08:00:00 18.1 19 Este 30 Este 0 -- -- 94
2020-06-23 07:00:00 18 21 Este 30 Este 0 -- -- 94
2020-06-23 06:00:00 18.1 20 Este 35 Este 0 -- -- 94
2020-06-23 05:00:00 18.1 25 Este 39 Este 0 -- -- 94
2020-06-23 04:00:00 18.2 26 Este 38 Sudeste 0 -- -- 94
2020-06-23 03:00:00 18.4 26 Este 38 Este 0 -- -- 93
2020-06-23 02:00:00 18.6 25 Este 40 Este 0 -- -- 93
2020-06-23 01:00:00 18.6 25 Este 39 Este 0 -- -- 93
2020-06-23 00:00:00 18.6 26 Este 37 Este 0 -- -- 93
2020-06-22 23:00:00 18.5 27 Este 36 Este 0 -- -- 93
2020-06-22 22:00:00 18.7 24 Este 37 Este 0 -- -- 93
2020-06-22 21:00:00 18.9 26 Este 40 Este 0 -- -- 93
2020-06-22 20:00:00 18.8 28 Este 40 Este 0 -- -- 93
2020-06-22 19:00:00 19.5 27 Este 41 Este 0 -- -- 90
2020-06-22 18:00:00 20.1 30 Este 43 Este 0 -- -- 88
2020-06-22 17:00:00 20.7 29 Este 44 Este 0 -- -- 85
2020-06-22 16:00:00 20.9 28 Este 42 Nordeste 0 -- -- 86
2020-06-22 15:00:00 20.3 25 Este 43 Este 0 -- -- 87
2020-06-22 14:00:00 20.7 30 Este 45 Este 0 -- -- 82
2020-06-22 13:00:00 20.4 28 Este 41 Este 0 -- -- 83
2020-06-22 12:00:00 19.8 23 Este 33 Este 0 -- -- 89
2020-06-22 11:00:00 19.5 22 Este 31 Este 0 -- -- 91
2020-06-22 10:00:00 19.4 19 Este 28 Este 0 -- -- 92
2020-06-22 09:00:00 19 14 Este 24 Este 0 -- -- 92
2020-06-22 08:00:00 18.5 16 Este 24 Este 0 -- -- 92
2020-06-22 07:00:00 18.4 17 Este 24 Este 0 -- -- 92
2020-06-22 06:00:00 18.2 13 Este 21 Este 0 -- -- 93
2020-06-22 05:00:00 18.2 12 Este 22 Este 0 -- -- 93
2020-06-22 04:00:00 18 13 Este 19 Este 0 -- -- 93
2020-06-22 03:00:00 18 12 Este 16 Este 0 -- -- 93
2020-06-22 02:00:00 18 7 Este 10 Este 0 -- -- 92
2020-06-22 01:00:00 18.1 5 Este 6 Este 0 -- -- 91
2020-06-22 00:00:00 18.5 0 Calma 7 Oeste 0 -- -- 90
2020-06-21 23:00:00 18.4 4 Noroeste 12 Oeste 0 -- -- 90
2020-06-21 22:00:00 18.3 5 Noroeste 19 Noroeste 0 -- -- 91
2020-06-21 21:00:00 18.2 9 Noroeste 19 Noroeste 0 -- -- 92
2020-06-21 20:00:00 19.1 7 Oeste 15 Oeste 0 -- -- 90
2020-06-21 19:00:00 19.7 8 Oeste 15 Noroeste 0 -- -- 89
2020-06-21 18:00:00 19.4 8 Noroeste 18 Oeste 0 -- -- 90
2020-06-21 17:00:00 20.1 6 Norte 22 Norte 0 -- -- 87
2020-06-21 16:00:00 21.3 6 Norte 15 Norte 0 -- -- 70
2020-06-21 15:00:00 22.5 3 Nordeste 10 Este 0 -- -- 64
2020-06-21 14:00:00 21.2 9 Este 14 Sudeste 0 -- -- 68
2020-06-21 13:00:00 22.1 8 Este 14 Sudeste 0 -- -- 70
2020-06-21 12:00:00 21.7 9 Este 12 Sudeste 0 -- -- 72
2020-06-21 11:00:00 21.8 5 Sur 16 Sur 0 -- -- 65
2020-06-21 10:00:00 20.3 10 Sur 19 Sur 0 -- -- 66
2020-06-21 09:00:00 19.5 8 Sur 18 Sudoeste 0 -- -- 78
2020-06-21 08:00:00 18.1 9 Sur 14 Sudoeste 0 -- -- 82
2020-06-21 07:00:00 17.3 10 Sudoeste 15 Sudoeste 0 -- -- 83
2020-06-21 06:00:00 17.1 8 Sudoeste 12 Sudoeste 0 -- -- 84
2020-06-21 05:00:00 17.8 4 Oeste 9 Noroeste 0 -- -- 81
2020-06-21 04:00:00 17.7 0 Calma 10 Sudeste 0 -- -- 86
2020-06-21 03:00:00 17.6 9 Sudeste 20 Sudeste 0 -- -- 87
2020-06-21 02:00:00 17.5 17 Sudeste 20 Sudeste 0 -- -- 90
2020-06-21 01:00:00 17.5 13 Sudeste 18 Sudeste 0 -- -- 89
2020-06-21 00:00:00 17.4 9 Sudeste 14 Sudeste 0 -- -- 88
2020-06-20 23:00:00 17.5 8 Este 11 Este 0 -- -- 86
2020-06-20 22:00:00 17.8 5 Este 7 Sudeste 0 -- -- 83
2020-06-20 21:00:00 19.1 3 Este 10 Sudeste 0 -- -- 77
2020-06-20 20:00:00 20.3 3 Sur 11 Sur 0 -- -- 76
2020-06-20 19:00:00 20.6 3 Sudeste 14 Este 0 -- -- 75
2020-06-20 18:00:00 19.1 6 Este 17 Sur 0 -- -- 79
2020-06-20 17:00:00 19.4 6 Este 17 Este 0 -- -- 78
2020-06-20 16:00:00 20.5 6 Sudeste 15 Este 0 -- -- 80
2020-06-20 15:00:00 20.3 5 Este 14 Este 0 -- -- 82
2020-06-20 14:00:00 20.5 0 Calma 11 Norte 0 -- -- 83
2020-06-20 13:00:00 17.9 6 Norte 13 Norte 0 -- -- 87
2020-06-20 12:00:00 18.1 5 Noroeste 14 Noroeste 0 -- -- 86
2020-06-20 11:00:00 17.8 7 Noroeste 17 Oeste 0 -- -- 85
2020-06-20 10:00:00 17.7 12 Oeste 18 Oeste 0 -- -- 84
2020-06-20 09:00:00 17.7 12 Sudoeste 15 Sudoeste 0 -- -- 80
2020-06-20 08:00:00 17.2 5 Sur 8 Sudoeste 0 -- -- 82
2020-06-20 07:00:00 16.4 7 Sudoeste 9 Sudoeste 0 -- -- 87
2020-06-20 06:00:00 16.6 5 Sur 10 Sudoeste 0 -- -- 84
2020-06-20 05:00:00 17.2 4 Sudeste 9 Sudeste 0 -- -- 87
2020-06-20 04:00:00 17.2 8 Sudeste 9 Sudeste 0 -- -- 90
2020-06-20 03:00:00 17 7 Sudeste 8 Sudeste 0 -- -- 89
2020-06-20 02:00:00 17 4 Este 5 Este 0 -- -- 88
2020-06-20 01:00:00 16.9 4 Este 11 Sudeste 0 -- -- 87
2020-06-20 00:00:00 17 9 Sudeste 13 Sudeste 0 -- -- 85
2020-06-19 23:00:00 16.6 10 Sudeste 13 Sudeste 0 -- -- 82
2020-06-19 22:00:00 16 9 Este 14 Este 0 -- -- 83
2020-06-19 21:00:00 17.6 7 Este 14 Sudeste 0 -- -- 81
2020-06-19 20:00:00 18.3 4 Este 14 Este 0 -- -- 78
2020-06-19 19:00:00 18.8 9 Este 17 Este 0 -- -- 78
2020-06-19 18:00:00 18.5 12 Este 18 Este 0 -- -- 78
2020-06-19 17:00:00 17.5 4 Este 18 Este 0 -- -- 78
2020-06-19 16:00:00 18.7 4 Sudeste 13 Norte 0 -- -- 76
2020-06-19 15:00:00 16.7 8 Norte 15 Norte 0 -- -- 77
2020-06-19 14:00:00 16.9 5 Noroeste 22 Noroeste 0 -- -- 77
2020-06-19 13:00:00 17.1 12 Noroeste 19 Norte 0 -- -- 74
2020-06-19 12:00:00 17.1 7 Noroeste 16 Noroeste 0 -- -- 76
2020-06-19 11:00:00 17.5 8 Oeste 15 Oeste 0 -- -- 79
2020-06-19 10:00:00 16.8 7 Oeste 16 Oeste 0 -- -- 86
2020-06-19 09:00:00 16.6 8 Oeste 12 Oeste 0 -- -- 88
2020-06-19 08:00:00 15.9 6 Sudoeste 11 Oeste 0 -- -- 90
2020-06-19 07:00:00 15.4 7 Sudoeste 15 Noroeste 0 -- -- 89
2020-06-19 06:00:00 15.9 10 Oeste 18 Oeste 0 -- -- 91
2020-06-19 05:00:00 15.9 9 Oeste 15 Oeste 0 -- -- 91
2020-06-19 04:00:00 15.4 9 Oeste 13 Oeste 0 -- -- 90
2020-06-19 03:00:00 16.2 6 Sudoeste 9 Oeste 0 -- -- 88
2020-06-19 02:00:00 16.1 7 Oeste 10 Oeste 0 -- -- 86
2020-06-19 01:00:00 16.6 5 Noroeste 10 Oeste 0 -- -- 84
2020-06-19 00:00:00 16.8 3 Oeste 5 Oeste 0 -- -- 84
2020-06-18 23:00:00 16.9 3 Oeste 9 Norte 0 -- -- 84
2020-06-18 22:00:00 17 5 Oeste 8 Oeste 0 -- -- 82
2020-06-18 21:00:00 17.6 0 Calma 6 Este 0 -- -- 81
2020-06-18 20:00:00 17.1 3 Oeste 12 Oeste 0 -- -- 79
2020-06-18 19:00:00 16.8 6 Oeste 15 Noroeste 0 -- -- 80
2020-06-18 18:00:00 16.8 6 Noroeste 15 Noroeste 0 -- -- 79
2020-06-18 17:00:00 17.4 2 Noroeste 17 Noroeste 0 -- -- 79
2020-06-18 16:00:00 17.2 5 Norte 21 Norte 0 -- -- 80
2020-06-18 15:00:00 17.1 5 Noroeste 21 Noroeste 0 -- -- 81
2020-06-18 14:00:00 17 5 Noroeste 16 Noroeste 0 -- -- 78
2020-06-18 13:00:00 16.3 8 Noroeste 18 Noroeste 0 -- -- 78
2020-06-18 12:00:00 16.4 10 Noroeste 20 Noroeste 0 -- -- 77
2020-06-18 11:00:00 16.8 6 Oeste 15 Oeste 0.6 -- -- 78
2020-06-18 10:00:00 17.1 7 Oeste 14 Oeste 0.1 -- -- 78
2020-06-18 09:00:00 16 8 Sudoeste 15 Sudoeste 0 -- -- 82
2020-06-18 08:00:00 15.4 12 Sudoeste 17 Sudoeste 0 -- -- 84
2020-06-18 07:00:00 15 13 Sudoeste 18 Sudoeste 0.1 -- -- 87
2020-06-18 06:00:00 15.4 10 Oeste 18 Oeste 0 -- -- 88
2020-06-18 05:00:00 16 11 Oeste 24 Oeste 0 -- -- 86
2020-06-18 04:00:00 15.9 13 Sudoeste 19 Sudoeste 0 -- -- 84
2020-06-18 03:00:00 15.8 9 Sudoeste 19 Noroeste 0 -- -- 84
2020-06-18 02:00:00 16.1 9 Oeste 18 Oeste 0 -- -- 83
2020-06-18 01:00:00 16.1 9 Oeste 18 Oeste 0 -- -- 83
2020-06-18 00:00:00 16.1 12 Oeste 22 Sudoeste 0 -- -- 82
2020-06-17 23:00:00 16 11 Oeste 27 Oeste 0 -- -- 82
2020-06-17 22:00:00 16.1 16 Oeste 27 Oeste 0 -- -- 83
2020-06-17 21:00:00 16.2 15 Oeste 31 Oeste 0 -- -- 84
2020-06-17 20:00:00 16.4 14 Oeste 30 Oeste 0 -- -- 87
2020-06-17 19:00:00 16.2 16 Oeste 23 Oeste 0 -- -- 87
2020-06-17 18:00:00 16.2 15 Oeste 31 Noroeste 0 -- -- 85
2020-06-17 17:00:00 16.2 12 Noroeste 26 Noroeste 0 -- -- 82
2020-06-17 16:00:00 16.6 14 Noroeste 26 Noroeste 0 -- -- 81
2020-06-17 15:00:00 16.4 11 Noroeste 30 Noroeste 0 -- -- 82
2020-06-17 14:00:00 16.5 9 Noroeste 25 Noroeste 0 -- -- 82
2020-06-17 13:00:00 16.6 13 Oeste 23 Oeste 0 -- -- 82
2020-06-17 12:00:00 16.5 13 Oeste 29 Oeste 0 -- -- 85
2020-06-17 11:00:00 16 21 Oeste 40 Oeste 0 -- -- 92
2020-06-17 10:00:00 15.7 18 Oeste 34 Oeste 0 -- -- 92
2020-06-17 09:00:00 15.7 19 Oeste 36 Oeste 0 -- -- 89
2020-06-17 08:00:00 15.7 17 Oeste 37 Oeste 0.1 -- -- 84
2020-06-17 07:00:00 15.4 21 Oeste 37 Oeste 0.1 -- -- 90
2020-06-17 06:00:00 15.2 24 Oeste 46 Oeste 0.4 -- -- 93
2020-06-17 05:00:00 16.1 21 Oeste 41 Sudoeste 2.2 -- -- 84
2020-06-17 04:00:00 15.4 19 Noroeste 44 Norte 2.9 -- -- 92
2020-06-17 03:00:00 15.2 22 Noroeste 47 Noroeste 0 -- -- 87
2020-06-17 02:00:00 16.1 22 Oeste 39 Oeste 0 -- -- 89
2020-06-17 01:00:00 16.4 22 Oeste 42 Oeste 0 -- -- 89
2020-06-17 00:00:00 16.5 17 Oeste 47 Oeste 0 -- -- 89
2020-06-16 23:00:00 16.7 17 Noroeste 38 Noroeste 0 -- -- 87
2020-06-16 22:00:00 16.7 17 Noroeste 39 Noroeste 0 -- -- 87
2020-06-16 21:00:00 16.6 18 Noroeste 44 Noroeste 0 -- -- 87
2020-06-16 20:00:00 16.2 24 Noroeste 48 Noroeste 0 -- -- 82
2020-06-16 19:00:00 16.6 16 Noroeste 44 Oeste 0 -- -- 84
2020-06-16 18:00:00 17 17 Noroeste 48 Noroeste 0 -- -- 78
2020-06-16 17:00:00 17.2 22 Noroeste 54 Norte 0.2 -- -- 78
2020-06-16 16:00:00 17.5 17 Noroeste 49 Sudoeste 0.5 -- -- 79
2020-06-16 15:00:00 16.7 19 Noroeste 45 Oeste 0.1 -- -- 79
2020-06-16 14:00:00 16.5 18 Oeste 47 Noroeste 0.1 -- -- 77
2020-06-16 13:00:00 16.4 21 Noroeste 44 Noroeste 0 -- -- 81
2020-06-16 12:00:00 16.6 21 Oeste 33 Oeste 0.1 -- -- 78
2020-06-16 11:00:00 16 15 Oeste 28 Sudoeste 0.1 -- -- 92
2020-06-16 10:00:00 15.8 15 Oeste 27 Sudoeste 0.4 -- -- 94
2020-06-16 09:00:00 15.5 14 Sudoeste 21 Sudoeste 1.9 -- -- 94
2020-06-16 08:00:00 15.7 13 Sudoeste 23 Oeste 0.5 -- -- 94
2020-06-16 07:00:00 15.5 15 Oeste 26 Oeste 0.6 -- -- 94
2020-06-16 06:00:00 16 8 Noroeste 23 Noroeste 0.1 -- -- 93
2020-06-16 05:00:00 16.3 11 Oeste 23 Noroeste 0 -- -- 92
2020-06-16 04:00:00 16.3 6 Sudoeste 10 Oeste 0 -- -- 90
2020-06-16 03:00:00 16.7 8 Oeste 18 Oeste 0 -- -- 89
2020-06-16 02:00:00 16.7 6 Oeste 15 Oeste 0 -- -- 88
2020-06-16 01:00:00 16.8 6 Oeste 13 Noroeste 0 -- -- 88
2020-06-16 00:00:00 16.7 7 Oeste 16 Oeste 0 -- -- 88
2020-06-15 23:00:00 16.4 10 Sudoeste 18 Oeste 0 -- -- 89
2020-06-15 22:00:00 16.8 11 Oeste 24 Noroeste 0 -- -- 84
2020-06-15 21:00:00 17.7 10 Oeste 21 Noroeste 0 -- -- 86
2020-06-15 20:00:00 17.4 12 Oeste 28 Oeste 0 -- -- 89
2020-06-15 19:00:00 16.6 12 Oeste 38 Oeste 0 -- -- 87
2020-06-15 18:00:00 18.1 19 Oeste 35 Oeste 0 -- -- 78
2020-06-15 17:00:00 17.9 17 Noroeste 37 Norte 0 -- -- 79
2020-06-15 16:00:00 16.8 22 Noroeste 45 Noroeste 0 -- -- 79
2020-06-15 15:00:00 16.7 20 Noroeste 37 Noroeste 0 -- -- 80
2020-06-15 14:00:00 17.1 12 Noroeste 26 Noroeste 0 -- -- 78
2020-06-15 13:00:00 16.9 13 Noroeste 37 Noroeste 0 -- -- 82
2020-06-15 12:00:00 17.7 19 Noroeste 41 Norte 0 -- -- 70
2020-06-15 11:00:00 18.2 10 Noroeste 24 Noroeste 0 -- -- 72
2020-06-15 10:00:00 17.6 13 Oeste 22 Oeste 0 -- -- 64
2020-06-15 09:00:00 17.6 12 Sudoeste 22 Sudoeste 0 -- -- 69
2020-06-15 08:00:00 16.4 13 Sudoeste 18 Sudoeste 0 -- -- 75
2020-06-15 07:00:00 15.5 11 Sudoeste 15 Sudoeste 0 -- -- 76
2020-06-15 06:00:00 16.1 13 Sudoeste 17 Sudoeste 0 -- -- 75
2020-06-15 05:00:00 16 12 Sudoeste 14 Sudoeste 0 -- -- 82
2020-06-15 04:00:00 16.4 11 Sudoeste 14 Sudoeste 0 -- -- 84
2020-06-15 03:00:00 16 9 Sudoeste 11 Sudoeste 0 -- -- 89
2020-06-15 02:00:00 16 8 Sudoeste 9 Sudoeste 0 -- -- 90
2020-06-15 01:00:00 16.2 6 Sudoeste 14 Sudoeste 0 -- -- 91
2020-06-15 00:00:00 16.5 10 Sudoeste 18 Sudoeste 0 -- -- 90
2020-06-14 23:00:00 16.6 12 Oeste 21 Oeste 0 -- -- 89
2020-06-14 22:00:00 16.3 14 Oeste 33 Oeste 0 -- -- 89
2020-06-14 21:00:00 16.8 16 Oeste 38 Oeste 0 -- -- 88
2020-06-14 20:00:00 17.1 15 Noroeste 33 Noroeste 0 -- -- 87
2020-06-14 19:00:00 17.4 15 Oeste 38 Oeste 0 -- -- 84
2020-06-14 18:00:00 17 19 Oeste 40 Noroeste 0 -- -- 85
2020-06-14 17:00:00 16.7 23 Noroeste 60 Noroeste 0 -- -- 85
2020-06-14 16:00:00 17 31 Noroeste 49 Noroeste 0 -- -- 79
2020-06-14 15:00:00 18.4 24 Noroeste 41 Norte 0 -- -- 68
2020-06-14 14:00:00 18.8 17 Noroeste 37 Noroeste 0 -- -- 67
2020-06-14 13:00:00 18.3 16 Noroeste 28 Noroeste 0 -- -- 68
2020-06-14 12:00:00 18.9 11 Noroeste 26 Sudoeste 0 -- -- 60
2020-06-14 11:00:00 19.7 17 Sudoeste 30 Sudoeste 0 -- -- 56
2020-06-14 10:00:00 18.8 20 Sudoeste 29 Sudoeste 0 -- -- 57
2020-06-14 09:00:00 17.4 18 Sudoeste 25 Sudoeste 0 -- -- 61
2020-06-14 08:00:00 16.9 17 Sudoeste 24 Sudoeste 0 -- -- 61
2020-06-14 07:00:00 16.3 16 Sudoeste 23 Sudoeste 0 -- -- 61
2020-06-14 06:00:00 16.1 16 Sudoeste 22 Sudoeste 0 -- -- 63
2020-06-14 05:00:00 16.7 12 Oeste 18 Oeste 0 -- -- 63
2020-06-14 04:00:00 16.1 12 Sudoeste 18 Sudoeste 0 -- -- 73
2020-06-14 03:00:00 16.3 13 Sudoeste 18 Sudoeste 0 -- -- 67
2020-06-14 02:00:00 16.1 10 Sudoeste 19 Oeste 0 -- -- 82
2020-06-14 01:00:00 16.8 10 Oeste 30 Oeste 0 -- -- 86
2020-06-14 00:00:00 16.9 10 Noroeste 37 Noroeste 0 -- -- 83
2020-06-13 23:00:00 16.9 12 Noroeste 34 Oeste 0 -- -- 82
2020-06-13 22:00:00 16.8 16 Oeste 40 Oeste 0 -- -- 82
2020-06-13 21:00:00 17 14 Noroeste 38 Oeste 0 -- -- 81
2020-06-13 20:00:00 16.7 14 Noroeste 40 Noroeste 0 -- -- 82
2020-06-13 19:00:00 17.3 20 Noroeste 48 Norte 0 -- -- 77
2020-06-13 18:00:00 16.7 26 Noroeste 48 Noroeste 0 -- -- 74
2020-06-13 17:00:00 18.1 16 Noroeste 33 Oeste 0 -- -- 74
2020-06-13 16:00:00 18.9 18 Oeste 35 Oeste 0 -- -- 64
2020-06-13 15:00:00 18.4 20 Oeste 40 Oeste 0 -- -- 70
2020-06-13 14:00:00 17.4 21 Oeste 48 Sudoeste 0 -- -- 72
2020-06-13 13:00:00 18.4 22 Oeste 42 Oeste 0 -- -- 70
2020-06-13 12:00:00 17.9 22 Oeste 52 Sudoeste 0 -- -- 71
2020-06-13 11:00:00 16.8 19 Oeste 41 Noroeste 0 -- -- 73
2020-06-13 10:00:00 16.7 21 Oeste 60 Oeste 0 -- -- 76
2020-06-13 09:00:00 16.6 21 Oeste 41 Oeste 0 -- -- 71
2020-06-13 08:00:00 16.2 17 Oeste 28 Oeste 0 -- -- 76
2020-06-13 07:00:00 15 17 Oeste 47 Sudoeste 0 -- -- 84
2020-06-13 06:00:00 15.3 29 Sudoeste 48 Sudoeste 0 -- -- 78
2020-06-13 05:00:00 15.8 30 Oeste 63 Oeste 0 -- -- 76
2020-06-13 04:00:00 16.3 36 Oeste 67 Oeste 0 -- -- 73
2020-06-13 03:00:00 15.9 26 Oeste 49 Sudoeste 0 -- -- 75
2020-06-13 02:00:00 15.4 30 Oeste 53 Oeste 0.1 -- -- 79
2020-06-13 01:00:00 14.6 29 Oeste 59 Oeste 0.4 -- -- 90
2020-06-13 00:00:00 14.9 33 Oeste 58 Oeste 2.7 -- -- 90
2020-06-12 23:00:00 14.8 33 Oeste 67 Oeste 0.3 -- -- 92
2020-06-12 22:00:00 15 36 Oeste 73 Oeste 0.2 -- -- 89
2020-06-12 21:00:00 15.4 29 Oeste 63 Oeste 0 -- -- 90
2020-06-12 20:00:00 16.2 28 Oeste 68 Oeste 0 -- -- 83
2020-06-12 19:00:00 16.7 21 Oeste 43 Oeste 0 -- -- 77
2020-06-12 18:00:00 16.7 21 Oeste 44 Sudoeste 0 -- -- 71
2020-06-12 17:00:00 17.2 22 Oeste 39 Oeste 0.1 -- -- 70
2020-06-12 16:00:00 16.8 18 Oeste 42 Oeste 0 -- -- 71
2020-06-12 15:00:00 15.8 19 Oeste 35 Oeste 0 -- -- 78
2020-06-12 14:00:00 14.8 19 Oeste 37 Oeste 0 -- -- 84
2020-06-12 13:00:00 14.6 21 Oeste 34 Oeste 0 -- -- 87
2020-06-12 12:00:00 15.4 21 Oeste -- -- -- -- -- 86
2020-06-12 11:00:00 14.4 28 Oeste 58 Oeste -- -- -- 88
2020-06-12 10:00:00 13.8 29 Oeste 59 Oeste -- -- -- 88
2020-06-12 09:00:00 13.4 40 Oeste 69 Oeste -- -- -- 86
2020-06-12 08:00:00 13.8 39 Oeste 63 Oeste -- -- -- 82
2020-06-12 07:00:00 13.9 35 Oeste 59 Oeste -- -- -- 80
2020-06-12 06:00:00 13.7 41 Oeste 77 Noroeste -- -- -- 80
2020-06-12 05:00:00 13.2 28 Noroeste 78 Noroeste -- -- -- 83
2020-06-12 04:00:00 14.7 38 Noroeste 95 Noroeste -- -- -- 80
2020-06-12 03:00:00 15.1 51 Oeste 103 Oeste -- -- -- 79
2020-06-12 02:00:00 15.4 41 Oeste 77 Sudoeste -- -- -- 79
2020-06-12 01:00:00 15 39 Sudoeste 64 Sudoeste 0.3 -- -- 70
2020-06-12 00:00:00 14.7 36 Sudoeste 60 Sudoeste 0.1 -- -- 68